Terminal Aerodrome Forecast
Issued by NWS Mt. Holly, NJ

Home | Current Version | Previous Version | Text Only | Print | Product List | Glossary On
Versions: 1 2 3 4 5 6 7 8 9 10 11 12 13 14 15 16 17 18 19 20 21 22 23 24 25 26 27 28 29 30 31 32 33 34
000
FTUS41 KPHI 250232 AAB
TAFPHL
TAF AMD
KPHL 250232Z 2503/2606 12010KT P6SM SCT015 OVC060
     FM250900 02005KT 5SM BR BKN015
     FM251400 36006KT P6SM BKN025
     FM251700 35008KT P6SM BKN035
     FM260200 04007KT P6SM BKN035=

USA.gov is the U.S. government's official web portal to all federal, state and local government web resources and services.